N411CE HETR-HEPS
Flight info
| Callsign | N411CE |
|---|---|
| Flight time | 1h 26m |
| Altitude | 3500 |
| Route | 285925N0331124E DCT SISIK DCT 295620N0323514E 301207N0323428E 302402N0322219E 303444N0321744E 304655N0321844E DCT 311132N0321718E |
| Aircraft | T240/L-SDGRY/S |
Departure
| Time | 2026-05-07 15:12 |
|---|---|
| Airport | At Tur Airport (HETR) |
Arrival
| Time | 2026-05-07 16:38 |
|---|---|
| Airport | Port Said International Airport (HEPS) |
| Time | Latitude | Longitude | Altitude | Speed | Heading |
|---|---|---|---|---|---|
| 2026-05-07 15:07 | 28.21438 | 33.63707 | 42 ft | 0 kts | 107° |
| 2026-05-07 15:10 | 28.21411 | 33.63692 | 42 ft | 9 kts | 218° |
| 2026-05-07 15:10 | 28.21336 | 33.63644 | 41 ft | 13 kts | 198° |
| 2026-05-07 15:10 | 28.21234 | 33.63608 | 40 ft | 19 kts | 197° |
| 2026-05-07 15:10 | 28.21109 | 33.63616 | 40 ft | 14 kts | 97° |
| 2026-05-07 15:11 | 28.21102 | 33.63667 | 42 ft | 21 kts | 93° |
| 2026-05-07 15:11 | 28.21018 | 33.64036 | 53 ft | 76 kts | 107° |
| 2026-05-07 15:11 | 28.20879 | 33.64776 | 116 ft | 113 kts | 97° |
| 2026-05-07 15:11 | 28.20592 | 33.65751 | 259 ft | 142 kts | 105° |
| 2026-05-07 15:12 | 28.20247 | 33.66945 | 324 ft | 169 kts | 106° |
| 2026-05-07 15:12 | 28.19567 | 33.67988 | 645 ft | 165 kts | 156° |
| 2026-05-07 15:12 | 28.18528 | 33.68086 | 1020 ft | 143 kts | 212° |
| 2026-05-07 15:12 | 28.17987 | 33.67336 | 1390 ft | 117 kts | 273° |
| 2026-05-07 15:13 | 28.18143 | 33.66486 | 1691 ft | 112 kts | 292° |
| 2026-05-07 15:13 | 28.18373 | 33.65626 | 1940 ft | 116 kts | 307° |
| 2026-05-07 15:13 | 28.19060 | 33.65167 | 2197 ft | 117 kts | 339° |
| 2026-05-07 15:13 | 28.19830 | 33.64795 | 2461 ft | 125 kts | 335° |
| 2026-05-07 15:14 | 28.20633 | 33.64345 | 2648 ft | 135 kts | 334° |
| 2026-05-07 15:14 | 28.21486 | 33.63871 | 2794 ft | 136 kts | 334° |
| 2026-05-07 15:14 | 28.22326 | 33.63398 | 2963 ft | 137 kts | 334° |
| 2026-05-07 15:14 | 28.23181 | 33.62906 | 3102 ft | 137 kts | 335° |
| 2026-05-07 15:15 | 28.24036 | 33.62417 | 3251 ft | 140 kts | 335° |
| 2026-05-07 15:15 | 28.24922 | 33.61904 | 3400 ft | 144 kts | 334° |
| 2026-05-07 15:15 | 28.25807 | 33.61392 | 3499 ft | 144 kts | 334° |
| 2026-05-07 15:15 | 28.26707 | 33.60873 | 3503 ft | 147 kts | 333° |
| 2026-05-07 15:16 | 28.27632 | 33.60330 | 3501 ft | 150 kts | 335° |
| 2026-05-07 15:16 | 28.28566 | 33.59820 | 3503 ft | 150 kts | 335° |
| 2026-05-07 15:16 | 28.29509 | 33.59291 | 3502 ft | 150 kts | 333° |
| 2026-05-07 15:16 | 28.30438 | 33.58741 | 3503 ft | 150 kts | 334° |
| 2026-05-07 15:17 | 28.31356 | 33.58204 | 3509 ft | 150 kts | 333° |
| 2026-05-07 15:17 | 28.32301 | 33.57657 | 3508 ft | 151 kts | 334° |
| 2026-05-07 15:17 | 28.33239 | 33.57111 | 3504 ft | 153 kts | 334° |
| 2026-05-07 15:17 | 28.34185 | 33.56572 | 3518 ft | 156 kts | 335° |
| 2026-05-07 15:18 | 28.35173 | 33.56017 | 3505 ft | 158 kts | 335° |
| 2026-05-07 15:18 | 28.36153 | 33.55447 | 3512 ft | 158 kts | 335° |
| 2026-05-07 15:18 | 28.37126 | 33.54885 | 3512 ft | 158 kts | 336° |
| 2026-05-07 15:18 | 28.38107 | 33.54320 | 3511 ft | 160 kts | 336° |
| 2026-05-07 15:19 | 28.39107 | 33.53741 | 3517 ft | 160 kts | 336° |
| 2026-05-07 15:19 | 28.40089 | 33.53177 | 3513 ft | 159 kts | 336° |
| 2026-05-07 15:19 | 28.41082 | 33.52611 | 3517 ft | 158 kts | 335° |
| 2026-05-07 15:19 | 28.42070 | 33.52041 | 3514 ft | 158 kts | 335° |
| 2026-05-07 15:20 | 28.43039 | 33.51479 | 3510 ft | 158 kts | 335° |
| 2026-05-07 15:20 | 28.44025 | 33.50912 | 3514 ft | 158 kts | 335° |
| 2026-05-07 15:20 | 28.44993 | 33.50354 | 3613 ft | 152 kts | 335° |
| 2026-05-07 15:20 | 28.45916 | 33.49821 | 3724 ft | 146 kts | 336° |
| 2026-05-07 15:21 | 28.46805 | 33.49305 | 3833 ft | 143 kts | 336° |
| 2026-05-07 15:21 | 28.47692 | 33.48797 | 3947 ft | 142 kts | 336° |
| 2026-05-07 15:21 | 28.48558 | 33.48291 | 4067 ft | 141 kts | 336° |
| 2026-05-07 15:21 | 28.49439 | 33.47782 | 4180 ft | 141 kts | 336° |
| 2026-05-07 15:22 | 28.50305 | 33.47282 | 4313 ft | 141 kts | 336° |
| 2026-05-07 15:22 | 28.51177 | 33.46783 | 4433 ft | 141 kts | 335° |
| 2026-05-07 15:22 | 28.52060 | 33.46274 | 4516 ft | 144 kts | 336° |
| 2026-05-07 15:22 | 28.52964 | 33.45754 | 4517 ft | 149 kts | 335° |
| 2026-05-07 15:23 | 28.53891 | 33.45217 | 4522 ft | 150 kts | 336° |
| 2026-05-07 15:23 | 28.54826 | 33.44676 | 4528 ft | 150 kts | 335° |
| 2026-05-07 15:23 | 28.55748 | 33.44142 | 4531 ft | 151 kts | 335° |
| 2026-05-07 15:23 | 28.56700 | 33.43591 | 4522 ft | 154 kts | 335° |
| 2026-05-07 15:24 | 28.57662 | 33.43031 | 4525 ft | 155 kts | 336° |
| 2026-05-07 15:24 | 28.58608 | 33.42482 | 4529 ft | 153 kts | 336° |
| 2026-05-07 15:24 | 28.59567 | 33.41933 | 4532 ft | 154 kts | 336° |
| 2026-05-07 15:24 | 28.60513 | 33.41385 | 4533 ft | 156 kts | 336° |
| 2026-05-07 15:25 | 28.61491 | 33.40823 | 4535 ft | 157 kts | 336° |
| 2026-05-07 15:25 | 28.62461 | 33.40265 | 4537 ft | 157 kts | 336° |
| 2026-05-07 15:25 | 28.63424 | 33.39699 | 4532 ft | 155 kts | 335° |
| 2026-05-07 15:25 | 28.64378 | 33.39141 | 4533 ft | 153 kts | 337° |
| 2026-05-07 15:26 | 28.65338 | 33.38590 | 4533 ft | 156 kts | 336° |
| 2026-05-07 15:26 | 28.66306 | 33.38037 | 4535 ft | 157 kts | 336° |
| 2026-05-07 15:26 | 28.67275 | 33.37468 | 4536 ft | 156 kts | 335° |
| 2026-05-07 15:26 | 28.68248 | 33.36901 | 4529 ft | 156 kts | 336° |
| 2026-05-07 15:27 | 28.69200 | 33.36352 | 4534 ft | 154 kts | 336° |
| 2026-05-07 15:27 | 28.70168 | 33.35793 | 4539 ft | 156 kts | 336° |
| 2026-05-07 15:27 | 28.71135 | 33.35231 | 4534 ft | 155 kts | 335° |
| 2026-05-07 15:27 | 28.72103 | 33.34669 | 4537 ft | 156 kts | 336° |
| 2026-05-07 15:28 | 28.73067 | 33.34115 | 4539 ft | 156 kts | 336° |
| 2026-05-07 15:28 | 28.74024 | 33.33553 | 4536 ft | 155 kts | 336° |
| 2026-05-07 15:28 | 28.74985 | 33.32994 | 4535 ft | 153 kts | 336° |
| 2026-05-07 15:28 | 28.75929 | 33.32440 | 4530 ft | 152 kts | 336° |
| 2026-05-07 15:29 | 28.76862 | 33.31903 | 4545 ft | 152 kts | 337° |
| 2026-05-07 15:29 | 28.77811 | 33.31346 | 4529 ft | 152 kts | 336° |
| 2026-05-07 15:29 | 28.78748 | 33.30814 | 4540 ft | 152 kts | 337° |
| 2026-05-07 15:29 | 28.79701 | 33.30267 | 4547 ft | 152 kts | 336° |
| 2026-05-07 15:30 | 28.80655 | 33.29705 | 4544 ft | 155 kts | 336° |
| 2026-05-07 15:30 | 28.81609 | 33.29154 | 4540 ft | 154 kts | 337° |
| 2026-05-07 15:30 | 28.82567 | 33.28599 | 4549 ft | 155 kts | 337° |
| 2026-05-07 15:30 | 28.83520 | 33.28030 | 4546 ft | 155 kts | 337° |
| 2026-05-07 15:31 | 28.84482 | 33.27470 | 4547 ft | 155 kts | 337° |
| 2026-05-07 15:31 | 28.85456 | 33.26911 | 4558 ft | 157 kts | 337° |
| 2026-05-07 15:31 | 28.86430 | 33.26343 | 4550 ft | 158 kts | 336° |
| 2026-05-07 15:31 | 28.87415 | 33.25772 | 4556 ft | 158 kts | 336° |
| 2026-05-07 15:32 | 28.88391 | 33.25206 | 4556 ft | 158 kts | 336° |
| 2026-05-07 15:32 | 28.89362 | 33.24637 | 4557 ft | 157 kts | 336° |
| 2026-05-07 15:32 | 28.90010 | 33.24257 | 4554 ft | 157 kts | 337° |
| 2026-05-07 15:32 | 28.90980 | 33.23692 | 4551 ft | 155 kts | 338° |
| 2026-05-07 15:33 | 28.91937 | 33.23138 | 4549 ft | 154 kts | 337° |
| 2026-05-07 15:33 | 28.92883 | 33.22583 | 4549 ft | 154 kts | 337° |
| 2026-05-07 15:33 | 28.93845 | 33.22022 | 4548 ft | 154 kts | 337° |
| 2026-05-07 15:33 | 28.94790 | 33.21470 | 4552 ft | 154 kts | 337° |
| 2026-05-07 15:34 | 28.95758 | 33.20909 | 4551 ft | 156 kts | 337° |
| 2026-05-07 15:34 | 28.96722 | 33.20349 | 4554 ft | 157 kts | 337° |
| 2026-05-07 15:34 | 28.97700 | 33.19778 | 4555 ft | 156 kts | 337° |
| 2026-05-07 15:34 | 28.98661 | 33.19216 | 4555 ft | 156 kts | 337° |
| 2026-05-07 15:35 | 28.99589 | 33.18554 | 4551 ft | 158 kts | 327° |
| 2026-05-07 15:35 | 29.00467 | 33.17807 | 4550 ft | 157 kts | 327° |
| 2026-05-07 15:35 | 29.01328 | 33.17098 | 4557 ft | 154 kts | 328° |
| 2026-05-07 15:35 | 29.02211 | 33.16375 | 4565 ft | 157 kts | 329° |
| 2026-05-07 15:36 | 29.03096 | 33.15658 | 4564 ft | 159 kts | 329° |
| 2026-05-07 15:36 | 29.04008 | 33.14917 | 4556 ft | 159 kts | 329° |
| 2026-05-07 15:36 | 29.04899 | 33.14197 | 4553 ft | 156 kts | 328° |
| 2026-05-07 15:36 | 29.05769 | 33.13455 | 4558 ft | 155 kts | 328° |
| 2026-05-07 15:37 | 29.06634 | 33.12719 | 4570 ft | 157 kts | 328° |
| 2026-05-07 15:37 | 29.07536 | 33.12013 | 4565 ft | 156 kts | 329° |
| 2026-05-07 15:37 | 29.08424 | 33.11295 | 4562 ft | 156 kts | 329° |
| 2026-05-07 15:37 | 29.09288 | 33.10567 | 4571 ft | 156 kts | 327° |
| 2026-05-07 15:38 | 29.10172 | 33.09824 | 4564 ft | 158 kts | 328° |
| 2026-05-07 15:38 | 29.11059 | 33.09088 | 4574 ft | 158 kts | 328° |
| 2026-05-07 15:38 | 29.11947 | 33.08360 | 4570 ft | 158 kts | 328° |
| 2026-05-07 15:38 | 29.12847 | 33.07613 | 4566 ft | 159 kts | 329° |
| 2026-05-07 15:39 | 29.13740 | 33.06885 | 4570 ft | 158 kts | 329° |
| 2026-05-07 15:39 | 29.14638 | 33.06148 | 4573 ft | 157 kts | 329° |
| 2026-05-07 15:39 | 29.15527 | 33.05404 | 4578 ft | 158 kts | 328° |
| 2026-05-07 15:39 | 29.16419 | 33.04673 | 4576 ft | 160 kts | 329° |
| 2026-05-07 15:40 | 29.17329 | 33.03928 | 4582 ft | 161 kts | 328° |
| 2026-05-07 15:40 | 29.18239 | 33.03172 | 4581 ft | 161 kts | 328° |
| 2026-05-07 15:40 | 29.19132 | 33.02432 | 4577 ft | 158 kts | 329° |
| 2026-05-07 15:40 | 29.20031 | 33.01689 | 4575 ft | 159 kts | 328° |
| 2026-05-07 15:41 | 29.20913 | 33.00954 | 4574 ft | 157 kts | 328° |
| 2026-05-07 15:41 | 29.21803 | 33.00221 | 4575 ft | 158 kts | 329° |
| 2026-05-07 15:41 | 29.22688 | 32.99497 | 4579 ft | 158 kts | 329° |
| 2026-05-07 15:41 | 29.23586 | 32.98755 | 4573 ft | 158 kts | 328° |
| 2026-05-07 15:42 | 29.24467 | 32.98021 | 4576 ft | 158 kts | 329° |
| 2026-05-07 15:42 | 29.25356 | 32.97298 | 4579 ft | 159 kts | 329° |
| 2026-05-07 15:42 | 29.26255 | 32.96549 | 4580 ft | 159 kts | 329° |
| 2026-05-07 15:42 | 29.27151 | 32.95804 | 4576 ft | 159 kts | 329° |
| 2026-05-07 15:43 | 29.28038 | 32.95066 | 4572 ft | 158 kts | 329° |
| 2026-05-07 15:43 | 29.28935 | 32.94324 | 4578 ft | 157 kts | 329° |
| 2026-05-07 15:43 | 29.29813 | 32.93592 | 4585 ft | 158 kts | 329° |
| 2026-05-07 15:43 | 29.30711 | 32.92843 | 4578 ft | 159 kts | 329° |
| 2026-05-07 15:44 | 29.31610 | 32.92107 | 4573 ft | 158 kts | 329° |
| 2026-05-07 15:44 | 29.32501 | 32.91379 | 4571 ft | 158 kts | 328° |
| 2026-05-07 15:44 | 29.33394 | 32.90635 | 4586 ft | 159 kts | 328° |
| 2026-05-07 15:44 | 29.34281 | 32.89892 | 4585 ft | 160 kts | 329° |
| 2026-05-07 15:45 | 29.35193 | 32.89138 | 4587 ft | 161 kts | 329° |
| 2026-05-07 15:45 | 29.36106 | 32.88384 | 4593 ft | 161 kts | 328° |
| 2026-05-07 15:45 | 29.37003 | 32.87633 | 4595 ft | 160 kts | 329° |
| 2026-05-07 15:45 | 29.37914 | 32.86876 | 4593 ft | 162 kts | 328° |
| 2026-05-07 15:46 | 29.39755 | 32.85367 | 4591 ft | 162 kts | 328° |
| 2026-05-07 15:46 | 29.40651 | 32.84618 | 4592 ft | 161 kts | 328° |
| 2026-05-07 15:46 | 29.41559 | 32.83857 | 4591 ft | 160 kts | 328° |
| 2026-05-07 15:47 | 29.42450 | 32.83110 | 4584 ft | 159 kts | 328° |
| 2026-05-07 15:47 | 29.43352 | 32.82368 | 4591 ft | 159 kts | 330° |
| 2026-05-07 15:47 | 29.44244 | 32.81627 | 4593 ft | 160 kts | 329° |
| 2026-05-07 15:47 | 29.45147 | 32.80871 | 4593 ft | 159 kts | 329° |
| 2026-05-07 15:48 | 29.46049 | 32.80125 | 4596 ft | 159 kts | 329° |
| 2026-05-07 15:48 | 29.46941 | 32.79382 | 4595 ft | 159 kts | 329° |
| 2026-05-07 15:48 | 29.47847 | 32.78630 | 4591 ft | 160 kts | 328° |
| 2026-05-07 15:48 | 29.48746 | 32.77877 | 4597 ft | 159 kts | 328° |
| 2026-05-07 15:49 | 29.49642 | 32.77134 | 4596 ft | 161 kts | 328° |
| 2026-05-07 15:49 | 29.50550 | 32.76380 | 4595 ft | 160 kts | 328° |
| 2026-05-07 15:49 | 29.51439 | 32.75635 | 4600 ft | 160 kts | 328° |
| 2026-05-07 15:49 | 29.52355 | 32.74882 | 4613 ft | 162 kts | 329° |
| 2026-05-07 15:50 | 29.53264 | 32.74114 | 4609 ft | 161 kts | 328° |
| 2026-05-07 15:50 | 29.54161 | 32.73355 | 4600 ft | 162 kts | 328° |
| 2026-05-07 15:50 | 29.55084 | 32.72609 | 4615 ft | 162 kts | 328° |
| 2026-05-07 15:50 | 29.56012 | 32.71830 | 4601 ft | 164 kts | 327° |
| 2026-05-07 15:51 | 29.56926 | 32.71063 | 4603 ft | 163 kts | 327° |
| 2026-05-07 15:51 | 29.57843 | 32.70300 | 4603 ft | 162 kts | 327° |
| 2026-05-07 15:51 | 29.58757 | 32.69538 | 4605 ft | 161 kts | 327° |
| 2026-05-07 15:51 | 29.59655 | 32.68788 | 4619 ft | 162 kts | 328° |
| 2026-05-07 15:52 | 29.60689 | 32.68287 | 4605 ft | 163 kts | 349° |
| 2026-05-07 15:52 | 29.61786 | 32.68009 | 4607 ft | 159 kts | 347° |
| 2026-05-07 15:52 | 29.62845 | 32.67685 | 4607 ft | 156 kts | 347° |
| 2026-05-07 15:52 | 29.63881 | 32.67385 | 4604 ft | 155 kts | 348° |
| 2026-05-07 15:53 | 29.64929 | 32.67085 | 4604 ft | 155 kts | 348° |
| 2026-05-07 15:53 | 29.65975 | 32.66780 | 4605 ft | 154 kts | 347° |
| 2026-05-07 15:53 | 29.67012 | 32.66482 | 4615 ft | 155 kts | 347° |
| 2026-05-07 15:53 | 29.68062 | 32.66179 | 4620 ft | 155 kts | 348° |
| 2026-05-07 15:54 | 29.69102 | 32.65881 | 4615 ft | 155 kts | 348° |
| 2026-05-07 15:54 | 29.70150 | 32.65578 | 4614 ft | 154 kts | 348° |
| 2026-05-07 15:54 | 29.71185 | 32.65281 | 4623 ft | 154 kts | 348° |
| 2026-05-07 15:54 | 29.72235 | 32.64982 | 4615 ft | 153 kts | 348° |
| 2026-05-07 15:55 | 29.73257 | 32.64684 | 4618 ft | 152 kts | 348° |
| 2026-05-07 15:55 | 29.74287 | 32.64387 | 4613 ft | 153 kts | 348° |
| 2026-05-07 15:55 | 29.75321 | 32.64089 | 4619 ft | 153 kts | 347° |
| 2026-05-07 15:55 | 29.76343 | 32.63791 | 4624 ft | 153 kts | 347° |
| 2026-05-07 15:56 | 29.77377 | 32.63494 | 4613 ft | 153 kts | 347° |
| 2026-05-07 15:56 | 29.78418 | 32.63195 | 4620 ft | 154 kts | 347° |
| 2026-05-07 15:56 | 29.79460 | 32.62894 | 4627 ft | 154 kts | 347° |
| 2026-05-07 15:56 | 29.80491 | 32.62595 | 4624 ft | 153 kts | 348° |
| 2026-05-07 15:57 | 29.81530 | 32.62297 | 4626 ft | 153 kts | 348° |
| 2026-05-07 15:57 | 29.82558 | 32.62001 | 4638 ft | 155 kts | 348° |
| 2026-05-07 15:57 | 29.83615 | 32.61697 | 4636 ft | 156 kts | 348° |
| 2026-05-07 15:57 | 29.84659 | 32.61393 | 4633 ft | 155 kts | 347° |
| 2026-05-07 15:58 | 29.85706 | 32.61089 | 4632 ft | 154 kts | 347° |
| 2026-05-07 15:58 | 29.86751 | 32.60788 | 4626 ft | 154 kts | 347° |
| 2026-05-07 15:58 | 29.87772 | 32.60494 | 4629 ft | 152 kts | 348° |
| 2026-05-07 15:58 | 29.88800 | 32.60195 | 4626 ft | 151 kts | 348° |
| 2026-05-07 15:59 | 29.89811 | 32.59902 | 4628 ft | 151 kts | 348° |
| 2026-05-07 15:59 | 29.90839 | 32.59609 | 4639 ft | 152 kts | 348° |
| 2026-05-07 15:59 | 29.91865 | 32.59310 | 4635 ft | 154 kts | 348° |
| 2026-05-07 15:59 | 29.92912 | 32.59005 | 4646 ft | 155 kts | 347° |
| 2026-05-07 16:00 | 29.93954 | 32.58720 | 4636 ft | 154 kts | 352° |
| 2026-05-07 16:00 | 29.95022 | 32.58674 | 4639 ft | 151 kts | 360° |
| 2026-05-07 16:00 | 29.96071 | 32.58635 | 4640 ft | 153 kts | 358° |
| 2026-05-07 16:00 | 29.97135 | 32.58566 | 4630 ft | 152 kts | 358° |
| 2026-05-07 16:01 | 29.98186 | 32.58511 | 4631 ft | 152 kts | 358° |
| 2026-05-07 16:01 | 29.99248 | 32.58459 | 4640 ft | 152 kts | 358° |
| 2026-05-07 16:01 | 30.00305 | 32.58400 | 4643 ft | 151 kts | 357° |
| 2026-05-07 16:01 | 30.01344 | 32.58362 | 4636 ft | 150 kts | 359° |
| 2026-05-07 16:02 | 30.02392 | 32.58316 | 4636 ft | 150 kts | 358° |
| 2026-05-07 16:02 | 30.03442 | 32.58262 | 4641 ft | 151 kts | 358° |
| 2026-05-07 16:02 | 30.04482 | 32.58209 | 4646 ft | 152 kts | 358° |
| 2026-05-07 16:02 | 30.05549 | 32.58156 | 4650 ft | 154 kts | 358° |
| 2026-05-07 16:03 | 30.06601 | 32.58104 | 4654 ft | 152 kts | 358° |
| 2026-05-07 16:03 | 30.07669 | 32.58055 | 4655 ft | 154 kts | 359° |
| 2026-05-07 16:03 | 30.08748 | 32.58004 | 4648 ft | 156 kts | 359° |
| 2026-05-07 16:03 | 30.09826 | 32.57955 | 4660 ft | 156 kts | 358° |
| 2026-05-07 16:04 | 30.10938 | 32.57894 | 4652 ft | 160 kts | 358° |
| 2026-05-07 16:04 | 30.12041 | 32.57842 | 4646 ft | 159 kts | 358° |
| 2026-05-07 16:04 | 30.13150 | 32.57787 | 4638 ft | 157 kts | 358° |
| 2026-05-07 16:04 | 30.14219 | 32.57725 | 4650 ft | 153 kts | 358° |
| 2026-05-07 16:05 | 30.15287 | 32.57681 | 4649 ft | 154 kts | 359° |
| 2026-05-07 16:05 | 30.16354 | 32.57634 | 4641 ft | 155 kts | 358° |
| 2026-05-07 16:05 | 30.17443 | 32.57578 | 4663 ft | 157 kts | 358° |
| 2026-05-07 16:05 | 30.18530 | 32.57521 | 4668 ft | 159 kts | 358° |
| 2026-05-07 16:06 | 30.19641 | 32.57407 | 4664 ft | 161 kts | 349° |
| 2026-05-07 16:06 | 30.20658 | 32.56898 | 4655 ft | 160 kts | 333° |
| 2026-05-07 16:06 | 30.21526 | 32.56079 | 4653 ft | 161 kts | 322° |
| 2026-05-07 16:06 | 30.22351 | 32.55240 | 4658 ft | 159 kts | 324° |
| 2026-05-07 16:07 | 30.23193 | 32.54399 | 4655 ft | 159 kts | 323° |
| 2026-05-07 16:07 | 30.24019 | 32.53560 | 4664 ft | 158 kts | 324° |
| 2026-05-07 16:07 | 30.24850 | 32.52713 | 4668 ft | 158 kts | 323° |
| 2026-05-07 16:07 | 30.25669 | 32.51878 | 4668 ft | 158 kts | 323° |
| 2026-05-07 16:08 | 30.26493 | 32.51036 | 4672 ft | 158 kts | 322° |
| 2026-05-07 16:08 | 30.27326 | 32.50190 | 4681 ft | 160 kts | 323° |
| 2026-05-07 16:08 | 30.28151 | 32.49344 | 4675 ft | 159 kts | 322° |
| 2026-05-07 16:08 | 30.28986 | 32.48482 | 4682 ft | 161 kts | 322° |
| 2026-05-07 16:09 | 30.29835 | 32.47632 | 4679 ft | 160 kts | 322° |
| 2026-05-07 16:09 | 30.30663 | 32.46782 | 4680 ft | 160 kts | 322° |
| 2026-05-07 16:09 | 30.31499 | 32.45935 | 4684 ft | 161 kts | 322° |
| 2026-05-07 16:09 | 30.32357 | 32.45068 | 4695 ft | 165 kts | 322° |
| 2026-05-07 16:10 | 30.33211 | 32.44194 | 4686 ft | 164 kts | 321° |
| 2026-05-07 16:10 | 30.34064 | 32.43315 | 4684 ft | 162 kts | 322° |
| 2026-05-07 16:10 | 30.34916 | 32.42448 | 4687 ft | 161 kts | 322° |
| 2026-05-07 16:10 | 30.35750 | 32.41597 | 4685 ft | 161 kts | 322° |
| 2026-05-07 16:11 | 30.36600 | 32.40721 | 4694 ft | 164 kts | 323° |
| 2026-05-07 16:11 | 30.37469 | 32.39843 | 4701 ft | 166 kts | 323° |
| 2026-05-07 16:11 | 30.38328 | 32.38968 | 4704 ft | 166 kts | 322° |
| 2026-05-07 16:11 | 30.39184 | 32.38087 | 4691 ft | 164 kts | 322° |
| 2026-05-07 16:12 | 30.40061 | 32.37249 | 4686 ft | 160 kts | 330° |
| 2026-05-07 16:12 | 30.41067 | 32.36773 | 4682 ft | 157 kts | 343° |
| 2026-05-07 16:12 | 30.42095 | 32.36335 | 4679 ft | 156 kts | 341° |
| 2026-05-07 16:12 | 30.43112 | 32.35888 | 4686 ft | 156 kts | 342° |
| 2026-05-07 16:13 | 30.44123 | 32.35455 | 4685 ft | 156 kts | 342° |
| 2026-05-07 16:13 | 30.45144 | 32.35018 | 4685 ft | 156 kts | 342° |
| 2026-05-07 16:13 | 30.46154 | 32.34599 | 4689 ft | 157 kts | 342° |
| 2026-05-07 16:13 | 30.47187 | 32.34134 | 4693 ft | 159 kts | 339° |
| 2026-05-07 16:14 | 30.48236 | 32.33701 | 4698 ft | 161 kts | 342° |
| 2026-05-07 16:14 | 30.49280 | 32.33247 | 4699 ft | 160 kts | 341° |
| 2026-05-07 16:14 | 30.50318 | 32.32785 | 4692 ft | 161 kts | 341° |
| 2026-05-07 16:14 | 30.51375 | 32.32350 | 4696 ft | 161 kts | 341° |
| 2026-05-07 16:15 | 30.52417 | 32.31895 | 4689 ft | 161 kts | 342° |
| 2026-05-07 16:15 | 30.53478 | 32.31458 | 4691 ft | 163 kts | 341° |
| 2026-05-07 16:15 | 30.54536 | 32.30997 | 4698 ft | 164 kts | 343° |
| 2026-05-07 16:15 | 30.55604 | 32.30548 | 4689 ft | 160 kts | 341° |
| 2026-05-07 16:16 | 30.56637 | 32.30101 | 4682 ft | 159 kts | 342° |
| 2026-05-07 16:16 | 30.57679 | 32.29676 | 4677 ft | 157 kts | 346° |
| 2026-05-07 16:16 | 30.58758 | 32.29629 | 4684 ft | 156 kts | 6° |
| 2026-05-07 16:16 | 30.59837 | 32.29724 | 4687 ft | 159 kts | 3° |
| 2026-05-07 16:17 | 30.60958 | 32.29800 | 4693 ft | 161 kts | 3° |
| 2026-05-07 16:17 | 30.62080 | 32.29899 | 4689 ft | 160 kts | 3° |
| 2026-05-07 16:17 | 30.63188 | 32.29988 | 4683 ft | 160 kts | 4° |
| 2026-05-07 16:17 | 30.64300 | 32.30079 | 4685 ft | 159 kts | 4° |
| 2026-05-07 16:18 | 30.65392 | 32.30169 | 4691 ft | 159 kts | 3° |
| 2026-05-07 16:18 | 30.66519 | 32.30265 | 4674 ft | 161 kts | 4° |
| 2026-05-07 16:18 | 30.67259 | 32.30323 | 4676 ft | 159 kts | 2° |
| 2026-05-07 16:18 | 30.68729 | 32.30440 | 4679 ft | 160 kts | 4° |
| 2026-05-07 16:19 | 30.69470 | 32.30511 | 4684 ft | 161 kts | 3° |
| 2026-05-07 16:19 | 30.70964 | 32.30626 | 4680 ft | 163 kts | 4° |
| 2026-05-07 16:19 | 30.71716 | 32.30691 | 4683 ft | 162 kts | 3° |
| 2026-05-07 16:19 | 30.72833 | 32.30767 | 4686 ft | 161 kts | 1° |
| 2026-05-07 16:20 | 30.73958 | 32.30863 | 4675 ft | 161 kts | 4° |
| 2026-05-07 16:20 | 30.75076 | 32.30974 | 4676 ft | 161 kts | 4° |
| 2026-05-07 16:20 | 30.76184 | 32.31070 | 4677 ft | 162 kts | 4° |
| 2026-05-07 16:20 | 30.77303 | 32.31156 | 4676 ft | 160 kts | 4° |
| 2026-05-07 16:21 | 30.78418 | 32.31224 | 4679 ft | 159 kts | 359° |
| 2026-05-07 16:21 | 30.79508 | 32.31129 | 4679 ft | 157 kts | 356° |
| 2026-05-07 16:21 | 30.80605 | 32.31074 | 4675 ft | 158 kts | 358° |
| 2026-05-07 16:21 | 30.81701 | 32.31024 | 4681 ft | 161 kts | 358° |
| 2026-05-07 16:22 | 30.82819 | 32.30958 | 4667 ft | 159 kts | 356° |
| 2026-05-07 16:22 | 30.83922 | 32.30887 | 4682 ft | 158 kts | 356° |
| 2026-05-07 16:22 | 30.85025 | 32.30829 | 4689 ft | 158 kts | 358° |
| 2026-05-07 16:22 | 30.86141 | 32.30772 | 4690 ft | 164 kts | 357° |
| 2026-05-07 16:23 | 30.87283 | 32.30690 | 4678 ft | 162 kts | 357° |
| 2026-05-07 16:23 | 30.88408 | 32.30631 | 4689 ft | 164 kts | 357° |
| 2026-05-07 16:23 | 30.89560 | 32.30561 | 4693 ft | 166 kts | 357° |
| 2026-05-07 16:23 | 30.90699 | 32.30494 | 4681 ft | 164 kts | 357° |
| 2026-05-07 16:24 | 30.91846 | 32.30432 | 4684 ft | 165 kts | 357° |
| 2026-05-07 16:24 | 30.92981 | 32.30363 | 4690 ft | 164 kts | 356° |
| 2026-05-07 16:24 | 30.94127 | 32.30304 | 4683 ft | 163 kts | 356° |
| 2026-05-07 16:24 | 30.95252 | 32.30233 | 4689 ft | 164 kts | 356° |
| 2026-05-07 16:25 | 30.96395 | 32.30162 | 4675 ft | 163 kts | 356° |
| 2026-05-07 16:25 | 30.97516 | 32.30098 | 4689 ft | 163 kts | 356° |
| 2026-05-07 16:25 | 30.98659 | 32.30029 | 4685 ft | 163 kts | 358° |
| 2026-05-07 16:25 | 30.99788 | 32.29992 | 4689 ft | 162 kts | 356° |
| 2026-05-07 16:26 | 31.00905 | 32.29900 | 4683 ft | 162 kts | 356° |
| 2026-05-07 16:26 | 31.02029 | 32.29830 | 4689 ft | 161 kts | 356° |
| 2026-05-07 16:26 | 31.03146 | 32.29764 | 4687 ft | 163 kts | 356° |
| 2026-05-07 16:26 | 31.04276 | 32.29701 | 4686 ft | 162 kts | 356° |
| 2026-05-07 16:27 | 31.05413 | 32.29635 | 4690 ft | 162 kts | 356° |
| 2026-05-07 16:27 | 31.06523 | 32.29558 | 4693 ft | 162 kts | 356° |
| 2026-05-07 16:27 | 31.07652 | 32.29510 | 4683 ft | 161 kts | 356° |
| 2026-05-07 16:27 | 31.08776 | 32.29443 | 4598 ft | 165 kts | 356° |
| 2026-05-07 16:28 | 31.09953 | 32.29382 | 4465 ft | 170 kts | 356° |
| 2026-05-07 16:28 | 31.11154 | 32.29325 | 4270 ft | 175 kts | 356° |
| 2026-05-07 16:28 | 31.12382 | 32.29270 | 4069 ft | 175 kts | 358° |
| 2026-05-07 16:28 | 31.13576 | 32.29195 | 3880 ft | 173 kts | 357° |
| 2026-05-07 16:29 | 31.14783 | 32.29109 | 3694 ft | 170 kts | 357° |
| 2026-05-07 16:29 | 31.15943 | 32.29008 | 3697 ft | 165 kts | 356° |
| 2026-05-07 16:29 | 31.17057 | 32.28916 | 3688 ft | 160 kts | 356° |
| 2026-05-07 16:29 | 31.18169 | 32.28821 | 3691 ft | 157 kts | 357° |
| 2026-05-07 16:30 | 31.19248 | 32.28748 | 3691 ft | 157 kts | 357° |
| 2026-05-07 16:30 | 31.20345 | 32.28658 | 3692 ft | 158 kts | 356° |
| 2026-05-07 16:30 | 31.21438 | 32.28574 | 3693 ft | 156 kts | 356° |
| 2026-05-07 16:30 | 31.22516 | 32.28493 | 3693 ft | 156 kts | 357° |
| 2026-05-07 16:31 | 31.23606 | 32.28410 | 3694 ft | 156 kts | 356° |
| 2026-05-07 16:31 | 31.24683 | 32.28335 | 3694 ft | 157 kts | 356° |
| 2026-05-07 16:31 | 31.25777 | 32.28261 | 3636 ft | 157 kts | 357° |
| 2026-05-07 16:31 | 31.26879 | 32.28183 | 3498 ft | 163 kts | 357° |
| 2026-05-07 16:32 | 31.28031 | 32.28129 | 3349 ft | 166 kts | 360° |
| 2026-05-07 16:32 | 31.29179 | 32.27994 | 3178 ft | 166 kts | 341° |
| 2026-05-07 16:32 | 31.29994 | 32.27088 | 2978 ft | 169 kts | 298° |
| 2026-05-07 16:32 | 31.30257 | 32.25749 | 2808 ft | 167 kts | 284° |
| 2026-05-07 16:33 | 31.30454 | 32.24430 | 2575 ft | 163 kts | 284° |
| 2026-05-07 16:33 | 31.30650 | 32.23176 | 2325 ft | 154 kts | 285° |
| 2026-05-07 16:33 | 31.30839 | 32.21956 | 2062 ft | 150 kts | 285° |
| 2026-05-07 16:33 | 31.31018 | 32.20762 | 1805 ft | 147 kts | 285° |
| 2026-05-07 16:34 | 31.31178 | 32.19611 | 1541 ft | 143 kts | 285° |
| 2026-05-07 16:34 | 31.31338 | 32.18469 | 1284 ft | 140 kts | 284° |
| 2026-05-07 16:34 | 31.31514 | 32.17365 | 1029 ft | 138 kts | 285° |
| 2026-05-07 16:34 | 31.31668 | 32.16309 | 980 ft | 123 kts | 282° |
| 2026-05-07 16:35 | 31.31403 | 32.15370 | 992 ft | 133 kts | 237° |
| 2026-05-07 16:35 | 31.30600 | 32.14781 | 985 ft | 143 kts | 192° |
| 2026-05-07 16:35 | 31.29653 | 32.14995 | 990 ft | 134 kts | 143° |
| 2026-05-07 16:35 | 31.29131 | 32.15741 | 980 ft | 111 kts | 103° |
| 2026-05-07 16:36 | 31.29061 | 32.16582 | 984 ft | 99 kts | 72° |
| 2026-05-07 16:36 | 31.29220 | 32.17346 | 984 ft | 97 kts | 70° |
| 2026-05-07 16:36 | 31.29346 | 32.18116 | 978 ft | 97 kts | 82° |
| 2026-05-07 16:36 | 31.29179 | 32.18885 | 935 ft | 100 kts | 101° |
| 2026-05-07 16:37 | 31.28991 | 32.19674 | 720 ft | 104 kts | 99° |
| 2026-05-07 16:37 | 31.28779 | 32.20556 | 524 ft | 118 kts | 98° |
| 2026-05-07 16:37 | 31.28549 | 32.21457 | 330 ft | 114 kts | 99° |
| 2026-05-07 16:37 | 31.28344 | 32.22288 | 179 ft | 96 kts | 97° |
| 2026-05-07 16:38 | 31.28182 | 32.23000 | 28 ft | 87 kts | 95° |
| 2026-05-07 16:38 | 31.28042 | 32.23642 | 9 ft | 71 kts | 102° |
| 2026-05-07 16:38 | 31.27959 | 32.23971 | 11 ft | 34 kts | 109° |
| 2026-05-07 16:38 | 31.27985 | 32.24124 | 11 ft | 12 kts | 18° |
| 2026-05-07 16:39 | 31.28049 | 32.24149 | 11 ft | 8 kts | 36° |
| 2026-05-07 16:39 | 31.28061 | 32.24204 | 11 ft | 4 kts | 105° |
| 2026-05-07 16:39 | 31.28047 | 32.24244 | 11 ft | 14 kts | 159° |
| 2026-05-07 16:39 | 31.28021 | 32.24221 | 11 ft | 0 kts | 252° |